createdAt,value
2019-03-10T00:00:04.876Z,48.50
2019-03-10T00:00:36.091Z,48.60
2019-03-10T00:01:07.357Z,48.74
2019-03-10T00:01:38.562Z,48.89
2019-03-10T00:02:10.567Z,49.03
2019-03-10T00:02:41.856Z,49.13
2019-03-10T00:03:13.098Z,49.22
2019-03-10T00:03:44.306Z,49.31
2019-03-10T00:04:15.517Z,49.38
2019-03-10T00:04:46.728Z,49.48
2019-03-10T00:05:17.937Z,49.61
2019-03-10T00:05:49.156Z,49.54
2019-03-10T00:06:20.422Z,49.57
2019-03-10T00:06:51.627Z,49.64
2019-03-10T00:07:22.841Z,49.69
2019-03-10T00:07:54.137Z,49.82
2019-03-10T00:08:25.323Z,49.91
2019-03-10T00:08:56.523Z,50.01
2019-03-10T00:09:27.739Z,50.06
2019-03-10T00:09:58.963Z,49.91
2019-03-10T00:10:30.263Z,50.01
2019-03-10T00:11:01.464Z,50.06
2019-03-10T00:11:32.755Z,49.99
2019-03-10T00:12:03.962Z,50.00
2019-03-10T00:12:35.176Z,50.12
2019-03-10T00:13:06.408Z,50.15
2019-03-10T00:13:37.612Z,50.15
2019-03-10T00:14:08.820Z,50.11
2019-03-10T00:14:40.042Z,50.10
2019-03-10T00:15:11.566Z,50.11
2019-03-10T00:15:42.792Z,50.17
2019-03-10T00:16:13.998Z,50.20
2019-03-10T00:16:45.252Z,50.22
2019-03-10T00:17:16.454Z,50.26
2019-03-10T00:17:47.712Z,50.18
2019-03-10T00:18:18.932Z,50.24
2019-03-10T00:18:50.125Z,50.22
2019-03-10T00:19:21.499Z,50.33
2019-03-10T00:19:52.703Z,50.40
2019-03-10T00:20:23.902Z,50.40
2019-03-10T00:20:55.164Z,50.30
2019-03-10T00:21:26.396Z,50.32
2019-03-10T00:21:57.593Z,50.35
2019-03-10T00:22:28.809Z,50.31
2019-03-10T00:23:00.033Z,50.29
2019-03-10T00:23:31.240Z,50.24
2019-03-10T00:24:02.446Z,50.42
2019-03-10T00:24:33.648Z,50.23
2019-03-10T00:25:04.853Z,50.15
2019-03-10T00:25:36.068Z,49.96
2019-03-10T00:26:07.311Z,50.12
2019-03-10T00:26:38.566Z,49.78
2019-03-10T00:27:09.793Z,49.91
2019-03-10T00:27:41.010Z,49.97
2019-03-10T00:28:12.205Z,49.89
2019-03-10T00:28:43.402Z,49.78
2019-03-10T00:29:14.613Z,49.78
2019-03-10T00:29:45.818Z,49.82
2019-03-10T00:30:17.032Z,49.81
2019-03-10T00:30:48.230Z,49.95
2019-03-10T00:31:19.442Z,49.80
2019-03-10T00:31:50.688Z,50.01
2019-03-10T00:32:21.893Z,49.92
2019-03-10T00:32:53.103Z,49.76
2019-03-10T00:33:24.324Z,49.75
2019-03-10T00:33:55.555Z,49.57
2019-03-10T00:34:26.776Z,49.64
2019-03-10T00:34:57.985Z,49.56
2019-03-10T00:35:29.210Z,49.34
2019-03-10T00:36:00.392Z,49.41
2019-03-10T00:36:31.585Z,49.15
2019-03-10T00:37:02.826Z,49.12
2019-03-10T00:37:34.037Z,49.13
2019-03-10T00:38:05.249Z,49.27
2019-03-10T00:38:36.458Z,49.12
2019-03-10T00:39:07.664Z,49.27
2019-03-10T00:39:38.873Z,49.28
2019-03-10T00:40:10.082Z,49.31
2019-03-10T00:40:41.312Z,49.43
2019-03-10T00:41:12.553Z,49.50
2019-03-10T00:41:43.752Z,49.52
2019-03-10T00:42:14.954Z,49.63
2019-03-10T00:42:46.153Z,49.58
2019-03-10T00:43:17.415Z,49.62
2019-03-10T00:43:49.598Z,49.73
2019-03-10T00:44:20.803Z,49.78
2019-03-10T00:44:52.030Z,49.88
2019-03-10T00:45:23.221Z,49.91
2019-03-10T00:45:54.417Z,50.01
2019-03-10T00:46:25.646Z,50.03
2019-03-10T00:46:56.938Z,50.00
2019-03-10T00:47:28.099Z,49.98
2019-03-10T00:47:59.295Z,50.03
2019-03-10T00:48:30.511Z,50.06
2019-03-10T00:49:01.717Z,50.17
2019-03-10T00:49:32.917Z,50.20
2019-03-10T00:50:04.137Z,50.20
2019-03-10T00:50:35.523Z,50.19
2019-03-10T00:51:06.741Z,50.10
2019-03-10T00:51:37.954Z,50.14
2019-03-10T00:52:09.193Z,50.28
2019-03-10T00:52:40.419Z,50.35
2019-03-10T00:53:11.679Z,50.27
2019-03-10T00:53:42.881Z,50.24
2019-03-10T00:54:14.077Z,50.35
2019-03-10T00:54:45.328Z,50.33
2019-03-10T00:55:16.536Z,50.30
2019-03-10T00:55:47.746Z,50.33
2019-03-10T00:56:18.941Z,50.47
2019-03-10T00:56:50.155Z,50.34
2019-03-10T00:57:21.361Z,50.28
2019-03-10T00:57:52.611Z,50.17
2019-03-10T00:58:23.822Z,50.29
2019-03-10T00:58:55.020Z,50.27
2019-03-10T00:59:26.224Z,50.23
2019-03-10T00:59:57.420Z,50.25
2019-03-10T01:00:28.628Z,50.16
2019-03-10T01:00:59.822Z,50.24
2019-03-10T01:01:31.027Z,50.40
2019-03-10T01:02:02.227Z,50.57
2019-03-10T01:02:33.478Z,50.26
2019-03-10T01:03:04.700Z,50.26
2019-03-10T01:03:35.927Z,50.27
2019-03-10T01:04:07.134Z,50.22
2019-03-10T01:04:38.385Z,50.20
2019-03-10T01:05:09.591Z,50.59
2019-03-10T01:05:40.782Z,50.30
2019-03-10T01:06:11.988Z,50.37
2019-03-10T01:06:43.226Z,50.30
2019-03-10T01:07:14.437Z,50.33
2019-03-10T01:07:45.630Z,50.39
2019-03-10T01:08:16.828Z,50.38
2019-03-10T01:08:48.039Z,50.40
2019-03-10T01:09:19.246Z,50.41
2019-03-10T01:09:50.482Z,50.33
2019-03-10T01:10:21.788Z,50.38
2019-03-10T01:10:53.039Z,50.33
2019-03-10T01:11:24.239Z,50.38
2019-03-10T01:11:55.449Z,50.41
2019-03-10T01:12:26.654Z,50.32
2019-03-10T01:12:57.864Z,50.32
2019-03-10T01:13:29.148Z,50.39
2019-03-10T01:14:00.338Z,50.31
2019-03-10T01:14:31.535Z,50.37
2019-03-10T01:15:02.836Z,50.30
2019-03-10T01:15:34.025Z,50.04
2019-03-10T01:16:05.282Z,50.04
2019-03-10T01:16:36.497Z,50.11
2019-03-10T01:17:07.695Z,50.01
2019-03-10T01:17:38.903Z,50.12
2019-03-10T01:18:10.104Z,50.14
2019-03-10T01:18:41.321Z,50.14
2019-03-10T01:19:12.544Z,50.01
2019-03-10T01:19:43.728Z,50.01
2019-03-10T01:20:14.982Z,49.82
2019-03-10T01:20:46.181Z,49.79
2019-03-10T01:21:17.413Z,49.95
2019-03-10T01:21:48.615Z,49.76
2019-03-10T01:22:19.809Z,49.64
2019-03-10T01:22:51.002Z,49.65
2019-03-10T01:23:22.201Z,49.76
2019-03-10T01:23:53.413Z,49.94
2019-03-10T01:24:24.625Z,49.87
2019-03-10T01:24:55.861Z,49.98
2019-03-10T01:25:27.099Z,49.76
2019-03-10T01:25:58.296Z,49.91
2019-03-10T01:26:29.498Z,49.81
2019-03-10T01:27:00.709Z,49.42
2019-03-10T01:27:31.906Z,49.50
2019-03-10T01:28:03.106Z,49.28
2019-03-10T01:28:34.326Z,49.40
2019-03-10T01:29:05.533Z,49.48
2019-03-10T01:29:36.733Z,49.34
2019-03-10T01:30:07.975Z,49.38
2019-03-10T01:30:39.224Z,49.36
2019-03-10T01:31:10.446Z,49.38
2019-03-10T01:31:41.639Z,49.45
2019-03-10T01:32:12.838Z,49.55
2019-03-10T01:32:44.086Z,49.48
2019-03-10T01:33:15.288Z,49.56
2019-03-10T01:33:46.534Z,49.68
2019-03-10T01:34:17.752Z,49.65
2019-03-10T01:34:48.954Z,49.62
2019-03-10T01:35:20.182Z,49.72
2019-03-10T01:35:51.382Z,49.84
2019-03-10T01:36:22.647Z,49.92
2019-03-10T01:36:53.863Z,49.83
2019-03-10T01:37:25.067Z,49.95
2019-03-10T01:37:56.278Z,50.00
2019-03-10T01:38:27.492Z,49.97
2019-03-10T01:38:58.702Z,50.00
2019-03-10T01:39:29.952Z,50.00
2019-03-10T01:40:01.152Z,50.05
2019-03-10T01:40:32.369Z,50.06
2019-03-10T01:41:03.569Z,50.14
2019-03-10T01:41:34.771Z,50.15
2019-03-10T01:42:05.974Z,50.14
2019-03-10T01:42:37.182Z,50.23
2019-03-10T01:43:08.446Z,50.29
2019-03-10T01:43:39.637Z,50.27
2019-03-10T01:44:10.845Z,50.36
2019-03-10T01:44:42.040Z,50.35
2019-03-10T01:45:13.244Z,50.23
2019-03-10T01:45:44.443Z,50.27
2019-03-10T01:46:15.650Z,50.29
2019-03-10T01:46:46.856Z,50.32
2019-03-10T01:47:18.074Z,50.39
2019-03-10T01:47:49.313Z,50.48
2019-03-10T01:48:20.510Z,50.40
2019-03-10T01:48:51.706Z,50.48
2019-03-10T01:49:22.922Z,50.59
2019-03-10T01:49:54.152Z,50.66
2019-03-10T01:50:25.372Z,50.67
2019-03-10T01:50:56.570Z,50.59
2019-03-10T01:51:27.782Z,50.64
2019-03-10T01:51:58.995Z,50.72
2019-03-10T01:52:30.208Z,50.63
2019-03-10T01:53:01.414Z,50.68
2019-03-10T01:53:32.630Z,50.60
2019-03-10T01:54:03.932Z,50.62
2019-03-10T01:54:35.165Z,50.71
2019-03-10T01:55:06.365Z,50.65
2019-03-10T01:55:37.577Z,50.51
2019-03-10T01:56:08.786Z,50.51
2019-03-10T01:56:40.005Z,50.48
2019-03-10T01:57:11.221Z,50.52
2019-03-10T01:57:42.490Z,50.58
2019-03-10T01:58:13.686Z,50.54
2019-03-10T01:58:44.973Z,50.55
2019-03-10T01:59:16.223Z,50.92
2019-03-10T01:59:47.469Z,50.48
2019-03-10T02:00:18.723Z,50.46
2019-03-10T02:00:49.914Z,50.44
2019-03-10T02:01:21.108Z,50.38
2019-03-10T02:01:52.324Z,50.41
2019-03-10T02:02:25.657Z,50.39
2019-03-10T02:02:56.490Z,50.29
2019-03-10T02:03:27.715Z,50.34
2019-03-10T02:03:58.912Z,50.43
2019-03-10T02:04:30.118Z,50.46
2019-03-10T02:05:01.335Z,50.54
2019-03-10T02:05:32.547Z,50.62
2019-03-10T02:06:03.757Z,50.62
2019-03-10T02:06:34.955Z,50.54
2019-03-10T02:07:06.161Z,50.63
2019-03-10T02:07:37.404Z,50.70
2019-03-10T02:08:08.610Z,50.80
2019-03-10T02:08:39.855Z,50.64
2019-03-10T02:09:11.057Z,50.71
2019-03-10T02:09:42.261Z,50.77
2019-03-10T02:10:13.479Z,50.87
2019-03-10T02:10:44.687Z,50.88
2019-03-10T02:11:15.888Z,50.92
2019-03-10T02:11:47.086Z,50.98
2019-03-10T02:12:18.297Z,51.06
2019-03-10T02:12:49.546Z,51.12
2019-03-10T02:13:20.746Z,51.23
2019-03-10T02:13:52.035Z,51.32
2019-03-10T02:14:23.243Z,51.43
2019-03-10T02:14:54.456Z,51.48
2019-03-10T02:15:25.653Z,51.59
2019-03-10T02:15:56.852Z,51.74
2019-03-10T02:16:28.095Z,51.70
2019-03-10T02:16:59.345Z,51.68
2019-03-10T02:17:30.558Z,51.63
2019-03-10T02:18:01.766Z,51.73
2019-03-10T02:18:32.966Z,51.81
2019-03-10T02:19:04.186Z,51.95
2019-03-10T02:19:35.427Z,51.94
2019-03-10T02:20:06.623Z,51.96
2019-03-10T02:20:37.843Z,51.97
2019-03-10T02:21:09.052Z,51.99
2019-03-10T02:21:40.311Z,51.98
2019-03-10T02:22:11.524Z,52.06
2019-03-10T02:22:42.733Z,52.15
2019-03-10T02:23:13.927Z,52.24
2019-03-10T02:23:45.169Z,52.32
2019-03-10T02:24:23.686Z,52.44
2019-03-10T02:24:49.294Z,52.44
2019-03-10T02:25:20.494Z,52.44
2019-03-10T02:25:51.695Z,52.51
2019-03-10T02:26:22.894Z,52.53
2019-03-10T02:26:54.103Z,52.55
2019-03-10T02:27:25.300Z,52.57
2019-03-10T02:27:56.511Z,52.62
2019-03-10T02:28:27.714Z,52.67
2019-03-10T02:28:58.965Z,52.74
2019-03-10T02:29:30.534Z,52.86
2019-03-10T02:30:01.767Z,52.97
2019-03-10T02:30:33.010Z,53.05
2019-03-10T02:31:04.294Z,53.16
2019-03-10T02:31:35.498Z,53.24
2019-03-10T02:32:06.708Z,53.34
2019-03-10T02:32:37.946Z,53.40
2019-03-10T02:33:09.176Z,53.41
2019-03-10T02:33:40.458Z,53.51
2019-03-10T02:34:11.667Z,53.52
2019-03-10T02:34:42.880Z,53.59
2019-03-10T02:35:14.096Z,53.64
2019-03-10T02:35:45.327Z,53.78
2019-03-10T02:36:16.555Z,53.80
2019-03-10T02:36:47.765Z,53.80
2019-03-10T02:37:18.963Z,53.84
2019-03-10T02:37:50.155Z,53.97
2019-03-10T02:38:21.355Z,54.01
2019-03-10T02:38:52.600Z,54.00
2019-03-10T02:39:23.817Z,54.03
2019-03-10T02:39:55.001Z,54.04
2019-03-10T02:40:26.204Z,53.99
2019-03-10T02:40:57.481Z,54.01
2019-03-10T02:41:28.662Z,54.03
2019-03-10T02:41:59.881Z,53.95
2019-03-10T02:42:31.064Z,53.97
2019-03-10T02:43:02.266Z,53.98
2019-03-10T02:43:33.473Z,54.04
2019-03-10T02:44:04.677Z,54.00
2019-03-10T02:44:35.883Z,54.04
2019-03-10T02:45:07.084Z,54.01
2019-03-10T02:45:38.306Z,54.03
2019-03-10T02:46:09.525Z,53.89
2019-03-10T02:46:40.729Z,54.00
2019-03-10T02:47:11.946Z,53.89
2019-03-10T02:47:43.178Z,53.97
2019-03-10T02:48:14.371Z,53.89
2019-03-10T02:48:45.570Z,53.87
2019-03-10T02:49:16.761Z,53.88
2019-03-10T02:49:47.960Z,53.70
2019-03-10T02:50:19.168Z,53.78
2019-03-10T02:50:50.387Z,53.70
2019-03-10T02:51:21.590Z,53.56
2019-03-10T02:51:52.841Z,53.46
2019-03-10T02:52:24.044Z,53.14
2019-03-10T02:52:55.239Z,53.17
2019-03-10T02:53:26.439Z,53.08
2019-03-10T02:53:57.642Z,53.06
2019-03-10T02:54:28.835Z,53.06
2019-03-10T02:55:00.059Z,52.96
2019-03-10T02:55:31.256Z,52.89
2019-03-10T02:56:02.456Z,52.86
2019-03-10T02:56:33.668Z,52.83
2019-03-10T02:57:04.902Z,52.77
2019-03-10T02:57:36.124Z,52.76
2019-03-10T02:58:07.305Z,52.83
2019-03-10T02:58:38.500Z,52.85
2019-03-10T02:59:09.702Z,52.82
2019-03-10T02:59:40.956Z,52.79
2019-03-10T03:00:12.157Z,52.81
2019-03-10T03:00:43.362Z,52.73
2019-03-10T03:01:14.616Z,52.86
2019-03-10T03:01:45.812Z,52.79
2019-03-10T03:02:17.022Z,52.75
2019-03-10T03:02:48.250Z,52.71
2019-03-10T03:03:19.450Z,52.73
2019-03-10T03:03:50.658Z,52.67
2019-03-10T03:04:21.929Z,52.69
2019-03-10T03:04:53.544Z,52.71
2019-03-10T03:05:24.785Z,52.76
2019-03-10T03:05:55.988Z,52.70
2019-03-10T03:06:27.219Z,52.71
2019-03-10T03:06:58.416Z,52.68
2019-03-10T03:07:29.623Z,52.69
2019-03-10T03:08:00.837Z,52.64
2019-03-10T03:08:32.257Z,52.65
2019-03-10T03:09:03.805Z,52.78
2019-03-10T03:09:35.011Z,52.72
2019-03-10T03:10:06.249Z,52.77
2019-03-10T03:10:37.523Z,52.76
2019-03-10T03:11:08.727Z,52.73
2019-03-10T03:11:39.962Z,52.80
2019-03-10T03:12:11.169Z,52.76
2019-03-10T03:12:42.445Z,52.76
2019-03-10T03:13:13.634Z,52.78
2019-03-10T03:13:44.839Z,52.82
2019-03-10T03:14:16.043Z,52.92
2019-03-10T03:14:47.229Z,52.90
2019-03-10T03:15:18.440Z,52.88
2019-03-10T03:15:49.640Z,52.85
2019-03-10T03:16:20.918Z,53.03
2019-03-10T03:16:52.957Z,52.94
2019-03-10T03:17:24.388Z,52.93
2019-03-10T03:17:55.602Z,52.89
2019-03-10T03:18:26.813Z,52.77
2019-03-10T03:18:58.033Z,52.47
2019-03-10T03:19:29.279Z,52.55
2019-03-10T03:20:00.573Z,52.55
2019-03-10T03:20:31.760Z,52.40
2019-03-10T03:21:02.956Z,52.49
2019-03-10T03:21:42.949Z,52.37
2019-03-10T03:22:07.092Z,52.29
2019-03-10T03:22:38.343Z,52.22
2019-03-10T03:23:09.550Z,52.13
2019-03-10T03:23:40.786Z,52.08
2019-03-10T03:24:12.088Z,52.00
2019-03-10T03:24:43.271Z,52.05
2019-03-10T03:25:14.470Z,51.92
2019-03-10T03:25:45.671Z,51.84
2019-03-10T03:26:16.863Z,51.87
2019-03-10T03:26:48.073Z,51.75
2019-03-10T03:27:19.329Z,51.64
2019-03-10T03:27:50.522Z,51.70
2019-03-10T03:28:21.731Z,51.69
2019-03-10T03:28:52.936Z,51.62
2019-03-10T03:29:24.174Z,51.75
2019-03-10T03:29:55.390Z,51.72
2019-03-10T03:30:26.598Z,51.52
2019-03-10T03:30:57.794Z,51.51
2019-03-10T03:31:29.002Z,51.52
2019-03-10T03:32:00.275Z,51.35
2019-03-10T03:32:31.503Z,51.32
2019-03-10T03:33:02.755Z,51.29
2019-03-10T03:33:34.066Z,51.30
2019-03-10T03:34:05.368Z,51.26
2019-03-10T03:34:36.569Z,51.27
2019-03-10T03:35:07.783Z,51.26
2019-03-10T03:35:39.018Z,51.18
2019-03-10T03:36:10.235Z,51.24
2019-03-10T03:36:41.417Z,51.33
2019-03-10T03:37:12.626Z,51.35
2019-03-10T03:37:43.824Z,51.33
2019-03-10T03:38:15.027Z,51.13
2019-03-10T03:38:46.242Z,51.39
2019-03-10T03:39:17.511Z,51.40
2019-03-10T03:39:48.692Z,51.12
2019-03-10T03:40:19.902Z,51.29
2019-03-10T03:40:51.123Z,51.23
2019-03-10T03:41:22.330Z,51.20
2019-03-10T03:41:53.535Z,51.27
2019-03-10T03:42:24.746Z,51.25
2019-03-10T03:42:55.951Z,51.04
2019-03-10T03:43:27.157Z,51.13
2019-03-10T03:43:58.381Z,51.20
2019-03-10T03:44:29.634Z,51.19
2019-03-10T03:45:00.845Z,51.23
2019-03-10T03:45:32.076Z,51.39
2019-03-10T03:46:03.262Z,51.18
2019-03-10T03:46:34.473Z,51.37
2019-03-10T03:47:05.685Z,51.72
2019-03-10T03:47:36.863Z,51.53
2019-03-10T03:48:08.071Z,51.40
2019-03-10T03:48:39.303Z,51.25
2019-03-10T03:49:10.536Z,51.14
2019-03-10T03:49:41.749Z,50.96
2019-03-10T03:50:12.959Z,50.80
2019-03-10T03:50:44.161Z,50.60
2019-03-10T03:51:15.380Z,50.48
2019-03-10T03:51:46.758Z,50.53
2019-03-10T03:52:17.997Z,50.44
2019-03-10T03:52:49.242Z,50.57
2019-03-10T03:53:20.451Z,50.71
2019-03-10T03:53:51.642Z,50.68
2019-03-10T03:54:22.845Z,50.72
2019-03-10T03:54:54.039Z,50.61
2019-03-10T03:55:25.232Z,50.61
2019-03-10T03:55:56.434Z,50.75
2019-03-10T03:56:27.644Z,50.97
2019-03-10T03:56:58.849Z,51.17
2019-03-10T03:57:30.039Z,51.26
2019-03-10T03:58:01.277Z,51.47
2019-03-10T03:58:32.459Z,51.48
2019-03-10T03:59:03.817Z,51.46
2019-03-10T03:59:35.013Z,51.40
2019-03-10T04:00:06.204Z,51.50
2019-03-10T04:00:37.389Z,51.60
2019-03-10T04:01:08.597Z,51.55
2019-03-10T04:01:39.819Z,51.42
2019-03-10T04:02:11.019Z,51.43
2019-03-10T04:02:42.260Z,51.14
2019-03-10T04:03:13.456Z,51.15
2019-03-10T04:03:44.685Z,51.26
2019-03-10T04:04:15.889Z,51.29
2019-03-10T04:04:47.106Z,51.41
2019-03-10T04:05:18.319Z,51.45
2019-03-10T04:05:49.536Z,51.38
2019-03-10T04:06:20.821Z,51.27
2019-03-10T04:06:52.005Z,51.27
2019-03-10T04:07:23.215Z,51.44
2019-03-10T04:07:54.451Z,51.52
2019-03-10T04:08:25.660Z,52.17
2019-03-10T04:08:56.892Z,52.57
2019-03-10T04:09:28.130Z,52.70
2019-03-10T04:09:59.337Z,53.14
2019-03-10T04:10:30.552Z,53.14
2019-03-10T04:11:01.772Z,52.94
2019-03-10T04:11:32.983Z,52.93
2019-03-10T04:12:04.171Z,52.98
2019-03-10T04:12:35.382Z,52.86
2019-03-10T04:13:06.590Z,52.99
2019-03-10T04:13:37.778Z,53.01
2019-03-10T04:14:08.979Z,53.12
2019-03-10T04:14:40.229Z,53.49
2019-03-10T04:15:11.420Z,53.59
2019-03-10T04:15:42.628Z,53.57
2019-03-10T04:16:13.844Z,53.63
2019-03-10T04:16:45.055Z,53.67
2019-03-10T04:17:16.260Z,53.99
2019-03-10T04:17:47.471Z,53.64
2019-03-10T04:18:18.670Z,53.42
2019-03-10T04:18:49.873Z,53.35
2019-03-10T04:19:21.069Z,53.31
2019-03-10T04:19:52.309Z,53.54
2019-03-10T04:20:23.505Z,53.55
2019-03-10T04:20:54.709Z,53.54
2019-03-10T04:21:25.905Z,55.06
2019-03-10T04:21:57.117Z,54.44
2019-03-10T04:22:28.337Z,54.07
2019-03-10T04:22:59.550Z,54.00
2019-03-10T04:23:30.802Z,53.98
2019-03-10T04:24:01.964Z,53.83
2019-03-10T04:24:33.164Z,53.83
2019-03-10T04:25:04.381Z,53.97
2019-03-10T04:25:35.622Z,54.10
2019-03-10T04:26:06.832Z,54.27
2019-03-10T04:26:38.205Z,54.24
2019-03-10T04:27:09.441Z,54.30
2019-03-10T04:27:40.633Z,54.24
2019-03-10T04:28:11.835Z,54.42
2019-03-10T04:28:43.054Z,54.49
2019-03-10T04:29:14.270Z,54.56
2019-03-10T04:29:45.467Z,54.70
2019-03-10T04:30:16.735Z,54.55
2019-03-10T04:30:47.946Z,54.58
2019-03-10T04:31:19.157Z,54.60
2019-03-10T04:31:50.390Z,54.50
2019-03-10T04:32:21.605Z,54.47
2019-03-10T04:32:52.817Z,54.47
2019-03-10T04:33:24.031Z,54.49
2019-03-10T04:33:55.274Z,54.54
2019-03-10T04:34:26.498Z,54.27
2019-03-10T04:34:57.723Z,54.35
2019-03-10T04:35:28.920Z,54.34
2019-03-10T04:36:00.135Z,54.38
2019-03-10T04:36:31.351Z,54.40
2019-03-10T04:37:02.598Z,54.33
2019-03-10T04:37:33.761Z,54.34
2019-03-10T04:38:04.959Z,54.24
2019-03-10T04:38:36.157Z,54.13
2019-03-10T04:39:07.382Z,54.09
2019-03-10T04:39:38.633Z,54.09
2019-03-10T04:40:09.816Z,54.28
2019-03-10T04:40:41.011Z,54.16
2019-03-10T04:41:12.213Z,53.91
2019-03-10T04:41:43.415Z,53.78
2019-03-10T04:42:14.677Z,53.82
2019-03-10T04:42:45.913Z,53.49
2019-03-10T04:43:17.108Z,53.35
2019-03-10T04:43:48.324Z,53.40
2019-03-10T04:44:19.543Z,53.32
2019-03-10T04:44:50.800Z,53.32
2019-03-10T04:45:21.995Z,53.16
2019-03-10T04:45:53.207Z,52.94
2019-03-10T04:46:24.423Z,53.03
2019-03-10T04:46:55.619Z,52.82
2019-03-10T04:47:26.896Z,52.80
2019-03-10T04:47:58.109Z,52.75
2019-03-10T04:48:29.312Z,52.67
2019-03-10T04:49:00.521Z,52.64
2019-03-10T04:49:31.722Z,52.77
2019-03-10T04:50:02.941Z,52.66
2019-03-10T04:50:34.143Z,52.69
2019-03-10T04:51:05.337Z,52.85
2019-03-10T04:51:36.543Z,53.39
2019-03-10T04:52:07.775Z,53.20
2019-03-10T04:52:38.989Z,52.66
2019-03-10T04:53:10.186Z,52.50
2019-03-10T04:53:41.387Z,52.56
2019-03-10T04:54:12.585Z,52.50
2019-03-10T04:54:43.785Z,52.12
2019-03-10T04:55:15.039Z,52.18
2019-03-10T04:55:46.240Z,52.19
2019-03-10T04:56:17.443Z,51.79
2019-03-10T04:56:48.653Z,51.80
2019-03-10T04:57:19.859Z,51.83
2019-03-10T04:57:51.055Z,51.92
2019-03-10T04:58:22.259Z,51.97
2019-03-10T04:58:53.456Z,51.67
2019-03-10T04:59:24.648Z,51.72
2019-03-10T04:59:55.903Z,51.72
2019-03-10T05:00:27.109Z,51.27
2019-03-10T05:00:58.324Z,51.24
2019-03-10T05:01:29.537Z,51.01
2019-03-10T05:02:00.748Z,50.73
2019-03-10T05:02:31.946Z,50.76
2019-03-10T05:03:03.144Z,50.70
2019-03-10T05:03:34.346Z,50.69
2019-03-10T05:04:05.595Z,50.46
2019-03-10T05:04:36.779Z,50.48
2019-03-10T05:05:08.006Z,50.36
2019-03-10T05:05:39.194Z,50.23
2019-03-10T05:06:10.410Z,50.16
2019-03-10T05:06:41.668Z,50.02
2019-03-10T05:07:12.912Z,50.10
2019-03-10T05:07:44.110Z,50.05
2019-03-10T05:08:15.297Z,50.04
2019-03-10T05:08:46.496Z,50.13
2019-03-10T05:09:17.695Z,50.15
2019-03-10T05:09:48.905Z,50.23
2019-03-10T05:10:20.106Z,50.32
2019-03-10T05:10:51.305Z,50.45
2019-03-10T05:11:22.551Z,50.50
2019-03-10T05:11:53.746Z,50.62
2019-03-10T05:12:24.951Z,50.76
2019-03-10T05:12:56.147Z,50.73
2019-03-10T05:13:27.428Z,50.72
2019-03-10T05:13:58.626Z,50.70
2019-03-10T05:14:29.833Z,50.83
2019-03-10T05:15:01.020Z,50.89
2019-03-10T05:15:32.274Z,50.89
2019-03-10T05:16:03.486Z,50.99
2019-03-10T05:16:34.689Z,51.30
2019-03-10T05:17:05.890Z,51.08
2019-03-10T05:17:37.100Z,51.16
2019-03-10T05:18:08.308Z,51.42
2019-03-10T05:18:39.523Z,51.72
2019-03-10T05:19:10.755Z,50.94
2019-03-10T05:19:41.957Z,50.97
2019-03-10T05:20:13.160Z,50.87
2019-03-10T05:20:44.457Z,50.92
2019-03-10T05:21:15.640Z,51.28
2019-03-10T05:21:46.838Z,51.27
2019-03-10T05:22:19.208Z,51.12
2019-03-10T05:22:50.416Z,50.86
2019-03-10T05:23:21.616Z,50.74
2019-03-10T05:23:52.854Z,50.55
2019-03-10T05:24:24.047Z,50.78
2019-03-10T05:24:55.286Z,50.67
2019-03-10T05:25:26.508Z,50.53
2019-03-10T05:25:57.702Z,50.80
2019-03-10T05:26:28.898Z,50.67
2019-03-10T05:27:00.102Z,50.77
2019-03-10T05:27:31.308Z,50.42
2019-03-10T05:28:02.503Z,50.19
2019-03-10T05:28:33.718Z,50.40
2019-03-10T05:29:04.919Z,50.30
2019-03-10T05:29:36.125Z,49.57
2019-03-10T05:30:07.385Z,49.61
2019-03-10T05:30:39.788Z,49.58
2019-03-10T05:31:10.991Z,49.63
2019-03-10T05:31:42.195Z,49.28
2019-03-10T05:32:13.399Z,48.80
2019-03-10T05:32:44.638Z,48.38
2019-03-10T05:33:15.840Z,48.18
2019-03-10T05:33:47.043Z,48.35
2019-03-10T05:34:18.289Z,47.92
2019-03-10T05:34:49.497Z,47.72
2019-03-10T05:35:20.784Z,47.47
2019-03-10T05:35:51.992Z,47.05
2019-03-10T05:36:23.187Z,46.85
2019-03-10T05:36:54.382Z,46.75
2019-03-10T05:37:25.592Z,46.68
2019-03-10T05:37:56.804Z,46.19
2019-03-10T05:38:27.997Z,46.21
2019-03-10T05:38:59.201Z,46.17
2019-03-10T05:39:30.395Z,46.75
2019-03-10T05:40:01.602Z,46.91
2019-03-10T05:40:32.864Z,46.24
2019-03-10T05:41:04.066Z,45.82
2019-03-10T05:41:35.265Z,45.73
2019-03-10T05:42:06.475Z,45.58
2019-03-10T05:42:37.688Z,45.46
2019-03-10T05:43:08.897Z,45.13
2019-03-10T05:43:40.110Z,45.01
2019-03-10T05:44:11.311Z,44.84
2019-03-10T05:44:42.511Z,44.20
2019-03-10T05:45:13.715Z,44.11
2019-03-10T05:45:44.969Z,43.77
2019-03-10T05:46:16.168Z,43.58
2019-03-10T05:46:47.380Z,43.50
2019-03-10T05:47:18.581Z,43.21
2019-03-10T05:47:49.804Z,43.27
2019-03-10T05:48:20.995Z,43.42
2019-03-10T05:48:52.202Z,43.31
2019-03-10T05:49:23.417Z,43.59
2019-03-10T05:49:54.616Z,43.61
2019-03-10T05:50:25.813Z,43.17
2019-03-10T05:50:57.068Z,43.16
2019-03-10T05:51:28.274Z,42.97
2019-03-10T05:51:59.456Z,42.71
2019-03-10T05:52:30.672Z,42.95
2019-03-10T05:53:01.849Z,42.63
2019-03-10T05:53:33.054Z,42.63
2019-03-10T05:54:04.293Z,42.76
2019-03-10T05:54:35.530Z,42.64
2019-03-10T05:55:06.729Z,43.18
2019-03-10T05:55:37.942Z,42.75
2019-03-10T05:56:09.129Z,42.54
2019-03-10T05:56:40.325Z,42.48
2019-03-10T05:57:11.528Z,42.08
2019-03-10T05:57:42.729Z,41.80
2019-03-10T05:58:13.926Z,41.43
2019-03-10T05:58:45.129Z,41.38
2019-03-10T05:59:16.344Z,41.45
2019-03-10T05:59:47.606Z,41.59
2019-03-10T06:00:18.803Z,41.94
2019-03-10T06:00:49.993Z,41.80
2019-03-10T06:01:21.211Z,42.70
2019-03-10T06:01:52.399Z,42.29
2019-03-10T06:02:23.604Z,41.86
2019-03-10T06:02:54.799Z,41.62
2019-03-10T06:03:26.021Z,41.96
2019-03-10T06:03:57.239Z,41.85
2019-03-10T06:04:28.483Z,41.65
2019-03-10T06:04:59.694Z,41.47
2019-03-10T06:05:30.923Z,40.98
2019-03-10T06:06:02.123Z,41.64
2019-03-10T06:06:33.324Z,41.54
2019-03-10T06:07:04.524Z,41.48
2019-03-10T06:07:35.718Z,42.10
2019-03-10T06:08:06.937Z,41.50
2019-03-10T06:08:38.169Z,41.58
2019-03-10T06:09:09.370Z,43.07
2019-03-10T06:09:40.570Z,42.71
2019-03-10T06:10:11.761Z,43.28
2019-03-10T06:10:43.001Z,42.58
2019-03-10T06:11:14.250Z,43.13
2019-03-10T06:11:45.464Z,42.87
2019-03-10T06:12:16.677Z,42.19
2019-03-10T06:12:47.912Z,41.84
2019-03-10T06:13:19.088Z,41.54
2019-03-10T06:13:50.285Z,41.58
2019-03-10T06:14:21.536Z,41.68
2019-03-10T06:14:52.734Z,41.91
2019-03-10T06:15:23.963Z,41.92
2019-03-10T06:15:55.157Z,42.06
2019-03-10T06:16:26.352Z,42.25
2019-03-10T06:16:57.553Z,42.16
2019-03-10T06:17:28.771Z,42.18
2019-03-10T06:18:00.013Z,42.35
2019-03-10T06:18:31.216Z,42.22
2019-03-10T06:19:02.416Z,42.61
2019-03-10T06:19:33.611Z,42.42
2019-03-10T06:20:04.828Z,42.70
2019-03-10T06:20:36.036Z,42.72
2019-03-10T06:21:07.233Z,42.93
2019-03-10T06:21:38.445Z,42.76
2019-03-10T06:22:09.705Z,43.39
2019-03-10T06:22:40.919Z,43.31
2019-03-10T06:23:12.118Z,43.37
2019-03-10T06:23:43.333Z,43.85
2019-03-10T06:24:14.523Z,43.51
2019-03-10T06:24:45.720Z,43.81
2019-03-10T06:25:16.919Z,44.34
2019-03-10T06:25:48.122Z,43.09
2019-03-10T06:26:19.325Z,42.99
2019-03-10T06:26:50.529Z,43.29
2019-03-10T06:27:21.779Z,43.08
2019-03-10T06:27:52.986Z,43.08
2019-03-10T06:28:24.190Z,43.17
2019-03-10T06:28:55.382Z,43.06
2019-03-10T06:29:26.573Z,42.90
2019-03-10T06:29:57.767Z,42.86
2019-03-10T06:30:28.983Z,42.50
2019-03-10T06:31:00.170Z,42.64
2019-03-10T06:31:31.379Z,42.68
2019-03-10T06:32:02.592Z,42.94
2019-03-10T06:32:33.794Z,42.70
2019-03-10T06:33:04.986Z,42.55
2019-03-10T06:33:36.227Z,42.44
2019-03-10T06:34:07.430Z,42.21
2019-03-10T06:34:38.630Z,42.29
2019-03-10T06:35:09.819Z,42.05
2019-03-10T06:35:41.023Z,41.86
2019-03-10T06:36:12.223Z,41.89
2019-03-10T06:36:43.450Z,41.65
2019-03-10T06:37:14.647Z,40.89
2019-03-10T06:37:45.842Z,40.67
2019-03-10T06:38:17.051Z,41.40
2019-03-10T06:38:48.316Z,41.33
2019-03-10T06:39:19.517Z,40.45
2019-03-10T06:39:50.721Z,40.11
2019-03-10T06:40:31.738Z,40.17
2019-03-10T06:40:54.883Z,39.57
2019-03-10T06:41:26.094Z,40.58
2019-03-10T06:41:57.316Z,39.57